createdAt,value
2019-05-07T00:00:47.057Z,19.00
2019-05-07T00:03:16.778Z,19.00
2019-05-07T00:05:46.534Z,19.00
2019-05-07T00:08:16.205Z,19.00
2019-05-07T00:10:45.977Z,19.00
2019-05-07T00:13:15.601Z,19.00
2019-05-07T00:15:45.659Z,19.00
2019-05-07T00:18:15.355Z,19.00
2019-05-07T00:20:45.040Z,19.00
2019-05-07T00:23:14.741Z,19.10
2019-05-07T00:25:44.697Z,19.10
2019-05-07T00:28:14.388Z,19.00
2019-05-07T00:30:43.947Z,19.00
2019-05-07T00:33:14.029Z,19.00
2019-05-07T00:35:52.950Z,19.00
2019-05-07T00:38:23.796Z,19.00
2019-05-07T00:41:03.754Z,19.00
2019-05-07T00:43:34.781Z,19.00
2019-05-07T00:46:06.199Z,19.00
2019-05-07T00:48:35.851Z,19.00
2019-05-07T00:51:23.532Z,19.00
2019-05-07T00:53:53.284Z,18.90
2019-05-07T00:56:23.136Z,18.90
2019-05-07T00:58:53.109Z,18.90
2019-05-07T01:01:22.969Z,18.90
2019-05-07T01:03:53.408Z,18.90
2019-05-07T01:06:26.329Z,18.90
2019-05-07T01:08:54.733Z,18.90
2019-05-07T01:11:24.838Z,18.90
2019-05-07T01:13:54.596Z,18.90
2019-05-07T01:16:24.326Z,18.90
2019-05-07T01:18:54.006Z,18.90
2019-05-07T01:21:23.707Z,18.90
2019-05-07T01:23:53.798Z,18.90
2019-05-07T01:26:23.522Z,18.90
2019-05-07T01:28:59.359Z,18.90
2019-05-07T01:31:32.879Z,18.90
2019-05-07T01:34:04.418Z,18.90
2019-05-07T01:36:34.173Z,18.90
2019-05-07T01:39:05.237Z,18.90
2019-05-07T01:41:34.911Z,18.90
2019-05-07T01:44:05.095Z,18.80
2019-05-07T01:46:34.772Z,18.80
2019-05-07T01:49:04.825Z,18.80
2019-05-07T01:51:34.485Z,18.80
2019-05-07T01:54:04.259Z,18.80
2019-05-07T01:56:33.929Z,18.80
2019-05-07T01:59:03.703Z,18.80
2019-05-07T02:01:35.911Z,18.80
2019-05-07T02:04:06.475Z,18.80
2019-05-07T02:06:54.392Z,18.80
2019-05-07T02:09:25.661Z,18.80
2019-05-07T02:12:03.205Z,18.80
2019-05-07T02:14:33.132Z,18.80
2019-05-07T02:17:03.373Z,18.70
2019-05-07T02:19:33.166Z,18.70
2019-05-07T02:22:03.038Z,18.70
2019-05-07T02:24:33.880Z,18.70
2019-05-07T02:27:03.778Z,18.70
2019-05-07T02:29:33.519Z,18.70
2019-05-07T02:32:04.630Z,18.70
2019-05-07T02:34:34.725Z,18.70
2019-05-07T02:37:06.087Z,18.70
2019-05-07T02:39:43.984Z,18.70
2019-05-07T02:42:13.056Z,18.70
2019-05-07T02:44:47.406Z,18.60
2019-05-07T02:47:18.648Z,18.60
2019-05-07T02:49:53.741Z,18.60
2019-05-07T02:52:25.158Z,18.60
2019-05-07T02:54:59.102Z,18.60
2019-05-07T02:57:29.791Z,18.60
2019-05-07T02:59:59.460Z,18.60
2019-05-07T03:02:29.171Z,18.60
2019-05-07T03:04:58.941Z,18.60
2019-05-07T03:07:28.686Z,18.60
2019-05-07T03:09:58.441Z,18.60
2019-05-07T03:12:28.412Z,18.60
2019-05-07T03:14:58.181Z,18.60
2019-05-07T03:17:27.951Z,18.60
2019-05-07T03:20:02.942Z,18.60
2019-05-07T03:22:33.660Z,18.60
2019-05-07T03:25:06.708Z,18.60
2019-05-07T03:27:36.478Z,18.50
2019-05-07T03:30:16.760Z,18.50
2019-05-07T03:32:48.179Z,18.50
2019-05-07T03:35:27.039Z,18.50
2019-05-07T03:37:54.798Z,18.50
2019-05-07T03:40:24.591Z,18.50
2019-05-07T03:42:54.200Z,18.50
2019-05-07T03:45:44.320Z,18.50
2019-05-07T03:48:18.831Z,18.50
2019-05-07T03:50:48.850Z,18.50
2019-05-07T03:53:18.529Z,18.40
2019-05-07T03:55:48.587Z,18.40
2019-05-07T03:58:18.265Z,18.30
2019-05-07T04:00:48.054Z,18.30
2019-05-07T04:03:19.854Z,18.30
2019-05-07T04:05:49.143Z,18.30
2019-05-07T04:08:18.737Z,18.20
2019-05-07T04:10:48.393Z,18.20
2019-05-07T04:13:18.596Z,18.20
2019-05-07T04:15:48.243Z,18.10
2019-05-07T04:18:17.925Z,18.10
2019-05-07T04:20:47.620Z,18.20
2019-05-07T04:23:17.429Z,18.10
2019-05-07T04:25:57.863Z,18.10
2019-05-07T04:28:29.386Z,18.10
2019-05-07T04:31:02.748Z,18.10
2019-05-07T04:33:33.557Z,18.10
2019-05-07T04:36:14.381Z,18.10
2019-05-07T04:38:44.331Z,18.10
2019-05-07T04:41:14.185Z,18.10
2019-05-07T04:43:43.942Z,18.10
2019-05-07T04:46:33.565Z,18.10
2019-05-07T04:49:04.122Z,18.10
2019-05-07T04:51:35.831Z,18.10
2019-05-07T04:54:05.549Z,18.10
2019-05-07T04:56:35.344Z,18.10
2019-05-07T04:59:05.143Z,18.10
2019-05-07T05:01:36.549Z,18.20
2019-05-07T05:04:24.307Z,18.20
2019-05-07T05:06:37.531Z,18.20
2019-05-07T05:09:08.729Z,18.20
2019-05-07T05:11:38.487Z,18.20
2019-05-07T05:14:08.231Z,18.20
2019-05-07T05:16:38.367Z,18.20
2019-05-07T05:19:08.053Z,18.20
2019-05-07T05:21:45.282Z,18.20
2019-05-07T05:24:25.782Z,18.30
2019-05-07T05:26:55.573Z,18.30
2019-05-07T05:29:25.190Z,18.30
2019-05-07T05:31:54.895Z,18.30
2019-05-07T05:34:24.682Z,18.30
2019-05-07T05:36:54.323Z,18.30
2019-05-07T05:39:24.077Z,18.30
2019-05-07T05:41:55.473Z,18.30
2019-05-07T05:44:26.974Z,18.40
2019-05-07T05:46:56.714Z,18.40
2019-05-07T05:49:26.429Z,18.40
2019-05-07T05:52:02.059Z,18.40
2019-05-07T05:54:36.673Z,18.40
2019-05-07T05:57:12.242Z,18.50
2019-05-07T06:00:02.153Z,18.50
2019-05-07T06:02:38.742Z,18.50
2019-05-07T06:05:26.494Z,18.50
2019-05-07T06:08:17.698Z,18.50
2019-05-07T06:10:51.973Z,18.50
2019-05-07T06:13:23.208Z,18.50
2019-05-07T06:15:57.213Z,18.60
2019-05-07T06:18:44.779Z,18.60
2019-05-07T06:21:32.263Z,18.60
2019-05-07T06:24:11.807Z,18.70
2019-05-07T06:26:42.572Z,18.60
2019-05-07T06:29:12.267Z,18.70
2019-05-07T06:31:42.243Z,19.00
2019-05-07T06:34:12.449Z,19.30
2019-05-07T06:36:42.708Z,19.60
2019-05-07T06:39:14.843Z,19.90
2019-05-07T06:42:02.800Z,20.20
2019-05-07T06:44:33.336Z,20.50
2019-05-07T06:47:05.397Z,20.80
2019-05-07T06:49:34.407Z,21.00
2019-05-07T06:52:04.165Z,21.20
2019-05-07T06:54:33.797Z,21.40
2019-05-07T06:57:03.584Z,21.60
2019-05-07T06:59:35.083Z,21.70
2019-05-07T07:02:22.934Z,21.90
2019-05-07T07:05:06.485Z,22.00
2019-05-07T07:07:42.122Z,22.10
2019-05-07T07:10:13.640Z,22.10
2019-05-07T07:12:43.371Z,22.20
2019-05-07T07:15:13.119Z,22.30
2019-05-07T07:17:42.904Z,22.40
2019-05-07T07:20:13.359Z,22.50
2019-05-07T07:22:43.084Z,22.60
2019-05-07T07:25:12.762Z,22.80
2019-05-07T07:27:43.019Z,22.80
2019-05-07T07:30:18.388Z,22.90
2019-05-07T07:32:51.806Z,22.90
2019-05-07T07:35:22.571Z,23.00
2019-05-07T07:37:53.122Z,23.10
2019-05-07T07:40:27.872Z,23.20
2019-05-07T07:42:57.604Z,23.30
2019-05-07T07:45:27.704Z,23.30
2019-05-07T07:47:57.412Z,23.20
2019-05-07T07:50:27.211Z,23.20
2019-05-07T07:52:56.819Z,23.20
2019-05-07T07:55:32.958Z,23.20
2019-05-07T07:58:07.207Z,23.30
2019-05-07T08:00:38.694Z,23.40
2019-05-07T08:03:10.050Z,23.50
2019-05-07T08:05:39.796Z,23.60
2019-05-07T08:08:09.638Z,23.70
2019-05-07T08:10:39.254Z,23.80
2019-05-07T08:13:09.011Z,23.90
2019-05-07T08:15:39.482Z,23.90
2019-05-07T08:18:09.269Z,24.00
2019-05-07T08:20:38.896Z,24.00
2019-05-07T08:23:08.661Z,24.00
2019-05-07T08:25:52.566Z,24.10
2019-05-07T08:28:23.107Z,24.20
2019-05-07T08:30:54.819Z,24.20
2019-05-07T08:33:26.172Z,24.10
2019-05-07T08:36:12.025Z,24.10
2019-05-07T08:38:52.426Z,24.10
2019-05-07T08:41:22.663Z,24.30
2019-05-07T08:44:07.326Z,24.60
2019-05-07T08:46:36.073Z,24.90
2019-05-07T08:49:07.557Z,25.10
2019-05-07T08:51:37.297Z,25.10
2019-05-07T08:54:07.246Z,25.50
2019-05-07T08:56:38.280Z,26.20
2019-05-07T08:59:08.306Z,26.90
2019-05-07T09:01:40.141Z,27.40
2019-05-07T09:04:09.952Z,27.40
2019-05-07T09:06:39.646Z,27.20
2019-05-07T09:09:13.751Z,27.10
2019-05-07T09:11:43.579Z,26.90
2019-05-07T09:14:13.311Z,26.60
2019-05-07T09:16:43.029Z,26.50
2019-05-07T09:19:13.061Z,26.40
2019-05-07T09:21:43.067Z,26.50
2019-05-07T09:24:13.678Z,26.50
2019-05-07T09:27:00.137Z,26.50
2019-05-07T09:29:47.765Z,26.40
2019-05-07T09:32:22.782Z,26.30
2019-05-07T09:34:56.893Z,26.20
2019-05-07T09:37:32.569Z,26.00
2019-05-07T09:40:02.887Z,26.00
2019-05-07T09:42:33.406Z,26.00
2019-05-07T09:45:04.081Z,26.10
2019-05-07T09:47:33.820Z,26.30
2019-05-07T09:50:08.033Z,26.40
2019-05-07T09:52:36.157Z,26.60
2019-05-07T09:55:16.627Z,26.70
2019-05-07T09:57:39.090Z,26.90
2019-05-07T10:00:09.445Z,26.90
2019-05-07T10:02:39.201Z,26.90
2019-05-07T10:05:09.087Z,26.80
2019-05-07T10:07:39.118Z,26.80
2019-05-07T10:10:09.298Z,26.80
2019-05-07T10:12:43.409Z,26.80
2019-05-07T10:15:13.302Z,26.90
2019-05-07T10:17:50.664Z,26.80
2019-05-07T10:20:22.829Z,26.80
2019-05-07T10:22:52.589Z,26.80
2019-05-07T10:25:22.741Z,26.90
2019-05-07T10:27:53.258Z,27.10
2019-05-07T10:30:23.237Z,27.30
2019-05-07T10:32:52.997Z,27.40
2019-05-07T10:35:23.015Z,27.60
2019-05-07T10:37:53.028Z,27.80
2019-05-07T10:40:23.002Z,27.80
2019-05-07T10:42:52.980Z,27.70
2019-05-07T10:45:36.740Z,27.80
2019-05-07T10:48:11.701Z,27.90
2019-05-07T10:50:51.603Z,28.00
2019-05-07T10:53:22.841Z,27.90
2019-05-07T10:55:52.232Z,27.80
2019-05-07T10:58:21.993Z,27.80
2019-05-07T11:00:52.293Z,27.80
2019-05-07T11:03:22.241Z,27.70
2019-05-07T11:05:51.952Z,27.70
2019-05-07T11:08:22.183Z,27.60
2019-05-07T11:10:52.244Z,27.60
2019-05-07T11:13:22.099Z,27.70
2019-05-07T11:15:56.452Z,27.60
2019-05-07T11:18:36.726Z,27.50
2019-05-07T11:21:06.490Z,27.40
2019-05-07T11:23:36.130Z,27.30
2019-05-07T11:26:05.807Z,27.20
2019-05-07T11:28:35.602Z,27.30
2019-05-07T11:31:05.581Z,27.40
2019-05-07T11:33:35.298Z,27.60
2019-05-07T11:36:05.111Z,27.80
2019-05-07T11:38:34.834Z,28.00
2019-05-07T11:41:05.032Z,28.10
2019-05-07T11:43:47.919Z,28.30
2019-05-07T11:46:24.863Z,28.40
2019-05-07T11:48:56.296Z,28.60
2019-05-07T11:51:36.207Z,28.80
2019-05-07T11:54:16.289Z,28.90
2019-05-07T11:56:46.050Z,28.90
2019-05-07T11:59:15.674Z,28.80
2019-05-07T12:01:49.895Z,28.70
2019-05-07T12:04:19.534Z,28.50
2019-05-07T12:06:49.251Z,28.40
2019-05-07T12:09:19.035Z,28.20
2019-05-07T12:11:48.669Z,28.20
2019-05-07T12:14:28.925Z,28.10
2019-05-07T12:16:49.474Z,28.10
2019-05-07T12:19:19.533Z,28.10
2019-05-07T12:21:49.631Z,28.20
2019-05-07T12:24:19.649Z,28.20
2019-05-07T12:26:49.438Z,28.20
2019-05-07T12:29:19.050Z,28.20
2019-05-07T12:31:55.671Z,28.30
2019-05-07T12:34:26.172Z,28.40
2019-05-07T12:36:55.955Z,28.60
2019-05-07T12:39:25.648Z,28.80
2019-05-07T12:41:55.263Z,29.00
2019-05-07T12:44:25.292Z,29.10
2019-05-07T12:46:54.977Z,29.10
2019-05-07T12:49:24.678Z,29.10
2019-05-07T12:52:05.174Z,29.10
2019-05-07T12:54:39.009Z,29.10
2019-05-07T12:57:08.768Z,29.10
2019-05-07T12:59:38.826Z,29.10
2019-05-07T13:02:26.649Z,29.20
2019-05-07T13:04:44.892Z,29.20
2019-05-07T13:07:25.270Z,29.20
2019-05-07T13:09:55.323Z,29.10
2019-05-07T13:12:25.038Z,29.20
2019-05-07T13:14:54.749Z,29.30
2019-05-07T13:17:24.490Z,29.50
2019-05-07T13:19:54.187Z,29.60
2019-05-07T13:22:24.346Z,29.70
2019-05-07T13:25:02.128Z,29.80
2019-05-07T13:27:32.390Z,29.90
2019-05-07T13:30:02.800Z,30.00
2019-05-07T13:32:34.323Z,30.00
2019-05-07T13:35:05.988Z,30.10
2019-05-07T13:37:37.723Z,30.00
2019-05-07T13:40:25.701Z,30.10
2019-05-07T13:42:57.079Z,30.10
2019-05-07T13:45:28.493Z,30.10
2019-05-07T13:48:00.137Z,30.20
2019-05-07T13:50:32.562Z,30.20
2019-05-07T13:53:02.301Z,30.20
2019-05-07T13:55:32.418Z,30.10
2019-05-07T13:58:02.269Z,30.10
2019-05-07T14:00:33.737Z,30.10
2019-05-07T14:03:03.480Z,30.10
2019-05-07T14:05:33.269Z,30.00
2019-05-07T14:08:04.525Z,29.80
2019-05-07T14:10:34.539Z,29.70
2019-05-07T14:13:12.542Z,29.60
2019-05-07T14:15:35.632Z,29.50
2019-05-07T14:18:05.366Z,29.30
2019-05-07T14:20:35.063Z,29.20
2019-05-07T14:23:04.761Z,29.20
2019-05-07T14:25:34.465Z,29.10
2019-05-07T14:28:04.509Z,29.10
2019-05-07T14:30:34.297Z,29.10
2019-05-07T14:33:08.593Z,29.10
2019-05-07T14:35:53.850Z,29.00
2019-05-07T14:38:25.302Z,28.90
2019-05-07T14:40:54.936Z,28.80
2019-05-07T14:43:26.281Z,28.70
2019-05-07T14:45:56.023Z,28.70
2019-05-07T14:48:25.810Z,28.60
2019-05-07T14:50:55.652Z,28.50
2019-05-07T14:53:25.570Z,28.30
2019-05-07T14:55:55.701Z,28.20
2019-05-07T14:58:25.814Z,28.10
2019-05-07T15:00:55.591Z,28.00
2019-05-07T15:03:25.363Z,27.90
2019-05-07T15:05:55.217Z,27.80
2019-05-07T15:08:25.094Z,27.70
2019-05-07T15:10:54.813Z,27.60
2019-05-07T15:13:24.561Z,27.50
2019-05-07T15:15:54.409Z,27.40
2019-05-07T15:18:44.171Z,27.30
2019-05-07T15:21:14.255Z,27.30
2019-05-07T15:23:44.057Z,27.20
2019-05-07T15:26:14.225Z,27.20
2019-05-07T15:28:45.609Z,27.10
2019-05-07T15:31:32.152Z,27.00
2019-05-07T15:34:02.906Z,27.00
2019-05-07T15:36:32.804Z,26.90
2019-05-07T15:39:02.945Z,26.90
2019-05-07T15:41:32.702Z,26.90
2019-05-07T15:44:02.802Z,26.80
2019-05-07T15:46:32.589Z,26.70
2019-05-07T15:49:02.213Z,26.60
2019-05-07T15:51:32.808Z,26.50
2019-05-07T15:54:03.494Z,26.40
2019-05-07T15:56:33.409Z,26.30
2019-05-07T15:59:03.248Z,26.30
2019-05-07T16:01:32.915Z,26.20
2019-05-07T16:04:03.126Z,26.10
2019-05-07T16:06:32.858Z,26.10
2019-05-07T16:09:04.614Z,26.00
2019-05-07T16:11:34.460Z,25.90
2019-05-07T16:14:05.867Z,25.90
2019-05-07T16:16:37.263Z,25.80
2019-05-07T16:19:08.712Z,25.70
2019-05-07T16:21:38.456Z,25.60
2019-05-07T16:24:08.194Z,25.50
2019-05-07T16:26:38.300Z,25.50
2019-05-07T16:29:08.066Z,25.40
2019-05-07T16:31:37.849Z,25.30
2019-05-07T16:34:07.818Z,25.30
2019-05-07T16:36:37.530Z,25.20
2019-05-07T16:39:07.663Z,25.10
2019-05-07T16:41:37.362Z,25.00
2019-05-07T16:44:07.153Z,25.00
2019-05-07T16:46:36.757Z,24.90
2019-05-07T16:49:06.501Z,24.80
2019-05-07T16:51:36.219Z,24.80
2019-05-07T16:54:06.087Z,24.80
2019-05-07T16:56:37.429Z,24.70
2019-05-07T16:59:12.379Z,24.60
2019-05-07T17:01:42.927Z,24.60
2019-05-07T17:04:12.818Z,24.50
2019-05-07T17:06:42.703Z,24.50
2019-05-07T17:09:13.726Z,24.40
2019-05-07T17:11:43.830Z,24.40
2019-05-07T17:14:13.605Z,24.30
2019-05-07T17:16:43.641Z,24.30
2019-05-07T17:19:14.992Z,24.20
2019-05-07T17:21:44.997Z,24.20
2019-05-07T17:24:14.712Z,24.10
2019-05-07T17:26:44.725Z,24.10
2019-05-07T17:29:14.357Z,24.10
2019-05-07T17:31:44.050Z,24.00
2019-05-07T17:34:13.785Z,24.00
2019-05-07T17:36:43.556Z,24.00
2019-05-07T17:39:13.355Z,23.90
2019-05-07T17:41:43.160Z,23.90
2019-05-07T17:44:12.730Z,23.90
2019-05-07T17:46:42.861Z,23.80
2019-05-07T17:49:13.513Z,23.80
2019-05-07T17:51:46.365Z,23.70
2019-05-07T17:54:16.022Z,23.60
2019-05-07T17:56:45.727Z,23.50
2019-05-07T17:59:15.765Z,23.50
2019-05-07T18:01:50.013Z,23.40
2019-05-07T18:04:18.355Z,23.40
2019-05-07T18:06:48.019Z,23.40
2019-05-07T18:09:17.988Z,23.40
2019-05-07T18:11:47.799Z,23.30
2019-05-07T18:14:17.660Z,23.20
2019-05-07T18:16:48.998Z,23.10
2019-05-07T18:19:18.745Z,23.10
2019-05-07T18:21:48.451Z,23.00
2019-05-07T18:24:18.151Z,22.90
2019-05-07T18:26:47.962Z,22.90
2019-05-07T18:29:17.647Z,22.90
2019-05-07T18:31:48.940Z,22.80
2019-05-07T18:34:18.575Z,22.80
2019-05-07T18:37:07.633Z,22.70
2019-05-07T18:39:37.279Z,22.60
2019-05-07T18:42:07.350Z,22.60
2019-05-07T18:44:37.006Z,22.60
2019-05-07T18:47:06.687Z,22.50
2019-05-07T18:49:36.430Z,22.50
2019-05-07T18:52:06.205Z,22.40
2019-05-07T18:54:35.909Z,22.40
2019-05-07T18:57:05.666Z,22.40
2019-05-07T18:59:36.466Z,22.30
2019-05-07T19:02:06.591Z,22.30
2019-05-07T19:04:36.274Z,22.30
2019-05-07T19:07:06.021Z,22.20
2019-05-07T19:09:35.672Z,22.20
2019-05-07T19:12:06.898Z,22.20
2019-05-07T19:14:36.683Z,22.10
2019-05-07T19:17:06.525Z,22.10
2019-05-07T19:19:37.894Z,22.10
2019-05-07T19:22:07.565Z,22.10
2019-05-07T19:24:45.431Z,22.00
2019-05-07T19:27:08.642Z,22.00
2019-05-07T19:29:38.401Z,22.00
2019-05-07T19:32:11.974Z,21.90
2019-05-07T19:34:41.749Z,21.90
2019-05-07T19:37:12.873Z,21.90
2019-05-07T19:39:42.985Z,21.80
2019-05-07T19:42:12.764Z,21.80
2019-05-07T19:44:42.429Z,21.80
2019-05-07T19:47:12.671Z,21.80
2019-05-07T19:49:42.460Z,21.70
2019-05-07T19:52:12.515Z,21.70
2019-05-07T19:54:43.115Z,21.60
2019-05-07T19:57:15.582Z,21.60
2019-05-07T19:59:45.213Z,21.60
2019-05-07T20:02:16.618Z,21.60
2019-05-07T20:04:46.308Z,21.50
2019-05-07T20:07:15.927Z,21.50
2019-05-07T20:09:45.684Z,21.50
2019-05-07T20:12:15.467Z,21.50
2019-05-07T20:14:45.089Z,21.40
2019-05-07T20:17:14.828Z,21.40
2019-05-07T20:19:44.600Z,21.50
2019-05-07T20:22:14.205Z,21.70
2019-05-07T20:24:46.857Z,21.80
2019-05-07T20:27:15.635Z,22.00
2019-05-07T20:29:45.341Z,22.10
2019-05-07T20:32:15.063Z,22.20
2019-05-07T20:34:44.842Z,22.20
2019-05-07T20:37:14.594Z,22.30
2019-05-07T20:39:44.300Z,22.40
2019-05-07T20:42:13.925Z,22.40
2019-05-07T20:44:43.664Z,22.50
2019-05-07T20:47:13.450Z,22.50
2019-05-07T20:49:43.151Z,22.60
2019-05-07T20:52:12.788Z,22.60
2019-05-07T20:54:44.169Z,22.60
2019-05-07T20:57:15.588Z,22.60
2019-05-07T20:59:45.331Z,22.70
2019-05-07T21:02:15.203Z,22.60
2019-05-07T21:04:45.214Z,22.70
2019-05-07T21:07:14.899Z,22.70
2019-05-07T21:09:44.694Z,22.70
2019-05-07T21:12:14.458Z,22.70
2019-05-07T21:14:44.110Z,22.70
2019-05-07T21:17:13.778Z,22.70
2019-05-07T21:19:43.523Z,22.70
2019-05-07T21:22:13.397Z,22.70
2019-05-07T21:24:43.076Z,22.60
2019-05-07T21:27:12.815Z,22.60
2019-05-07T21:29:42.484Z,22.60
2019-05-07T21:32:12.524Z,22.60
2019-05-07T21:34:42.515Z,22.60
2019-05-07T21:37:12.732Z,22.60
2019-05-07T21:39:42.601Z,22.60
2019-05-07T21:42:14.264Z,22.60
2019-05-07T21:44:43.542Z,22.60
2019-05-07T21:47:13.893Z,22.60
2019-05-07T21:49:43.645Z,22.60
2019-05-07T21:52:13.343Z,22.60
2019-05-07T21:54:47.548Z,22.60
2019-05-07T21:57:18.971Z,22.50
2019-05-07T21:59:48.988Z,22.50
2019-05-07T22:02:23.571Z,22.50
2019-05-07T22:04:53.298Z,22.50
2019-05-07T22:07:22.938Z,22.50
2019-05-07T22:09:54.345Z,22.50
2019-05-07T22:12:24.216Z,22.50
2019-05-07T22:14:53.908Z,22.50
2019-05-07T22:17:24.001Z,22.50
2019-05-07T22:19:53.647Z,22.50
2019-05-07T22:22:24.356Z,22.50
2019-05-07T22:24:54.181Z,22.50
2019-05-07T22:27:23.934Z,22.50
2019-05-07T22:29:53.817Z,22.30
2019-05-07T22:32:43.839Z,22.00
2019-05-07T22:35:14.810Z,21.70
2019-05-07T22:37:44.581Z,21.50
2019-05-07T22:40:14.867Z,21.30
2019-05-07T22:42:44.638Z,21.20
2019-05-07T22:45:14.527Z,21.10
2019-05-07T22:47:44.235Z,21.00
2019-05-07T22:50:15.599Z,20.90
2019-05-07T22:52:45.360Z,20.80
2019-05-07T22:55:15.149Z,20.70
2019-05-07T22:58:04.804Z,20.60
2019-05-07T23:00:42.660Z,20.60
2019-05-07T23:03:13.416Z,20.50
2019-05-07T23:05:44.912Z,20.40
2019-05-07T23:08:14.760Z,20.30
2019-05-07T23:10:44.729Z,20.30
2019-05-07T23:13:14.814Z,20.20
2019-05-07T23:15:44.530Z,20.20
2019-05-07T23:18:14.546Z,20.20
2019-05-07T23:20:44.198Z,20.10
2019-05-07T23:23:14.239Z,20.10
2019-05-07T23:25:44.182Z,20.10
2019-05-07T23:28:13.843Z,20.00
2019-05-07T23:30:44.322Z,20.00
2019-05-07T23:33:14.018Z,20.00
2019-05-07T23:35:43.795Z,20.00
2019-05-07T23:38:15.912Z,19.90
2019-05-07T23:41:03.023Z,19.90
2019-05-07T23:43:32.692Z,19.80
2019-05-07T23:46:02.483Z,19.80
2019-05-07T23:48:32.229Z,19.80
2019-05-07T23:51:02.379Z,19.70
2019-05-07T23:53:31.989Z,19.70
2019-05-07T23:56:02.829Z,19.70
2019-05-07T23:58:32.748Z,19.60
